createdAt,value
2022-08-03T00:00:26.594Z,7.68
2022-08-03T00:02:54.127Z,8.43
2022-08-03T00:05:21.594Z,10.75
2022-08-03T00:07:50.089Z,8.02
2022-08-03T00:10:17.692Z,6.63
2022-08-03T00:12:45.105Z,10.63
2022-08-03T00:15:16.323Z,13.05
2022-08-03T00:17:52.518Z,8.50
2022-08-03T00:20:20.607Z,7.20
2022-08-03T00:22:47.857Z,10.20
2022-08-03T00:25:15.161Z,9.50
2022-08-03T00:27:42.442Z,11.38
2022-08-03T00:30:09.943Z,8.13
2022-08-03T00:32:37.224Z,7.80
2022-08-03T00:35:09.222Z,14.63
2022-08-03T00:37:40.670Z,5.28
2022-08-03T00:40:10.375Z,11.18
2022-08-03T00:42:47.056Z,7.70
2022-08-03T00:45:14.379Z,8.38
2022-08-03T00:47:41.779Z,9.88
2022-08-03T00:50:09.270Z,6.07
2022-08-03T00:52:36.616Z,4.38
2022-08-03T00:55:05.039Z,5.80
2022-08-03T00:57:33.112Z,8.73
2022-08-03T01:00:01.043Z,6.50
2022-08-03T01:02:29.393Z,5.88
2022-08-03T01:04:57.206Z,8.35
2022-08-03T01:07:47.531Z,5.13
2022-08-03T01:10:18.455Z,7.13
2022-08-03T01:13:06.030Z,10.57
2022-08-03T01:15:51.003Z,4.68
2022-08-03T01:18:21.002Z,7.55
2022-08-03T01:20:50.342Z,7.30
2022-08-03T01:23:17.597Z,5.75
2022-08-03T01:26:03.384Z,4.75
2022-08-03T01:28:42.940Z,4.97
2022-08-03T01:31:12.546Z,4.97
2022-08-03T01:33:49.195Z,6.40
2022-08-03T01:36:27.375Z,5.68
2022-08-03T01:38:56.736Z,7.45
2022-08-03T01:41:26.822Z,7.43
2022-08-03T01:44:27.445Z,9.30
2022-08-03T01:46:47.602Z,6.65
2022-08-03T01:49:17.194Z,5.70
2022-08-03T01:51:58.567Z,9.80
2022-08-03T01:54:33.593Z,8.98
2022-08-03T01:57:00.933Z,9.75
2022-08-03T01:59:29.869Z,9.00
2022-08-03T02:02:28.535Z,8.38
2022-08-03T02:04:45.379Z,11.60
2022-08-03T02:07:13.191Z,15.73
2022-08-03T02:09:41.463Z,12.77
2022-08-03T02:12:11.976Z,11.65
2022-08-03T02:14:40.268Z,11.35
2022-08-03T02:17:08.482Z,9.18
2022-08-03T02:19:36.479Z,8.00
2022-08-03T02:22:05.977Z,7.55
2022-08-03T02:24:33.424Z,6.75
2022-08-03T02:27:01.895Z,6.32
2022-08-03T02:29:39.801Z,9.93
2022-08-03T02:32:10.761Z,10.73
2022-08-03T02:34:38.654Z,7.35
2022-08-03T02:37:06.613Z,5.47
2022-08-03T02:39:35.219Z,11.07
2022-08-03T02:42:03.167Z,4.80
2022-08-03T02:44:35.017Z,7.93
2022-08-03T02:47:07.334Z,6.85
2022-08-03T02:49:50.607Z,9.60
2022-08-03T02:52:20.786Z,9.65
2022-08-03T02:54:48.640Z,5.88
2022-08-03T02:57:16.133Z,5.63
2022-08-03T02:59:43.647Z,7.05
2022-08-03T03:02:11.422Z,9.07
2022-08-03T03:04:38.798Z,7.38
2022-08-03T03:07:27.157Z,7.03
2022-08-03T03:09:56.994Z,5.68
2022-08-03T03:12:24.592Z,7.65
2022-08-03T03:14:51.963Z,6.90
2022-08-03T03:17:20.413Z,8.25
2022-08-03T03:19:48.071Z,4.75
2022-08-03T03:22:15.915Z,10.70
2022-08-03T03:24:43.766Z,8.85
2022-08-03T03:27:11.277Z,7.10
2022-08-03T03:29:44.238Z,6.22
2022-08-03T03:32:11.627Z,8.80
2022-08-03T03:34:39.091Z,8.70
2022-08-03T03:37:06.658Z,4.80
2022-08-03T03:39:33.982Z,4.88
2022-08-03T03:42:01.697Z,13.02
2022-08-03T03:44:29.597Z,7.30
2022-08-03T03:46:58.479Z,6.82
2022-08-03T03:49:26.243Z,7.30
2022-08-03T03:51:55.023Z,6.25
2022-08-03T03:54:22.399Z,7.47
2022-08-03T03:56:53.133Z,6.13
2022-08-03T03:59:20.457Z,9.60
2022-08-03T04:01:47.777Z,6.60
2022-08-03T04:04:44.949Z,6.60
2022-08-03T04:07:31.069Z,7.82
2022-08-03T04:10:17.221Z,6.85
2022-08-03T04:12:49.953Z,9.05
2022-08-03T04:15:20.265Z,5.18
2022-08-03T04:17:47.925Z,8.40
2022-08-03T04:20:16.748Z,8.00
2022-08-03T04:22:44.075Z,8.27
2022-08-03T04:25:14.790Z,8.30
2022-08-03T04:27:42.455Z,9.77
2022-08-03T04:30:09.942Z,7.38
2022-08-03T04:32:39.305Z,7.88
2022-08-03T04:35:08.829Z,8.43
2022-08-03T04:37:50.175Z,13.05
2022-08-03T04:40:22.978Z,4.68
2022-08-03T04:42:51.240Z,7.18
2022-08-03T04:45:20.068Z,6.93
2022-08-03T04:47:47.751Z,7.72
2022-08-03T04:50:19.446Z,8.27
2022-08-03T04:52:48.730Z,8.27
2022-08-03T04:55:32.136Z,8.13
2022-08-03T04:57:59.936Z,36.08
2022-08-03T05:00:27.613Z,50.97
2022-08-03T05:02:55.500Z,46.05
2022-08-03T05:05:23.035Z,33.67
2022-08-03T05:07:50.876Z,25.67
2022-08-03T05:10:18.473Z,23.58
2022-08-03T05:12:48.888Z,24.88
2022-08-03T05:15:16.447Z,27.70
2022-08-03T05:17:43.748Z,12.45
2022-08-03T05:20:11.490Z,19.25
2022-08-03T05:22:38.797Z,14.63
2022-08-03T05:25:06.291Z,20.38
2022-08-03T05:27:33.595Z,12.85
2022-08-03T05:30:31.224Z,7.57
2022-08-03T05:32:49.356Z,15.40
2022-08-03T05:36:01.223Z,10.18
2022-08-03T05:38:04.437Z,10.48
2022-08-03T05:40:33.391Z,15.65
2022-08-03T05:43:02.686Z,8.70
2022-08-03T05:45:30.064Z,10.25
2022-08-03T05:47:57.430Z,12.70
2022-08-03T05:50:24.792Z,12.93
2022-08-03T05:52:52.108Z,6.10
2022-08-03T05:55:19.597Z,11.77
2022-08-03T05:57:48.220Z,10.05
2022-08-03T06:00:17.250Z,13.25
2022-08-03T06:02:44.614Z,12.77
2022-08-03T06:05:12.070Z,15.70
2022-08-03T06:07:39.393Z,11.10
2022-08-03T06:10:36.859Z,13.73
2022-08-03T06:12:54.362Z,14.73
2022-08-03T06:15:22.117Z,8.52
2022-08-03T06:17:50.174Z,9.23
2022-08-03T06:20:21.398Z,9.20
2022-08-03T06:23:00.437Z,7.82
2022-08-03T06:25:29.073Z,7.00
2022-08-03T06:27:56.450Z,19.45
2022-08-03T06:30:23.886Z,4.68
2022-08-03T06:32:51.790Z,4.95
2022-08-03T06:35:19.699Z,4.53
2022-08-03T06:37:47.890Z,10.85
2022-08-03T06:40:16.310Z,13.60
2022-08-03T06:42:49.330Z,7.28
2022-08-03T06:45:17.781Z,8.20
2022-08-03T06:47:45.063Z,7.15
2022-08-03T06:50:16.445Z,13.45
2022-08-03T06:52:44.716Z,8.93
2022-08-03T06:55:11.986Z,6.45
2022-08-03T06:57:39.300Z,6.35
2022-08-03T07:00:11.845Z,5.28
2022-08-03T07:02:40.210Z,4.03
2022-08-03T07:05:08.247Z,6.35
2022-08-03T07:07:35.571Z,11.38
2022-08-03T07:10:02.892Z,7.72
2022-08-03T07:12:30.882Z,4.10
2022-08-03T07:15:01.125Z,6.15
2022-08-03T07:17:31.024Z,6.80
2022-08-03T07:19:58.706Z,14.40
2022-08-03T07:22:26.305Z,7.80
2022-08-03T07:24:53.626Z,5.45
2022-08-03T07:27:20.929Z,6.45
2022-08-03T07:29:48.236Z,7.90
2022-08-03T07:32:15.674Z,4.93
2022-08-03T07:34:43.199Z,3.50
2022-08-03T07:37:10.545Z,4.03
2022-08-03T07:39:37.867Z,5.20
2022-08-03T07:42:05.590Z,5.40
2022-08-03T07:44:32.892Z,7.88
2022-08-03T07:47:00.189Z,6.15
2022-08-03T07:49:30.907Z,5.50
2022-08-03T07:52:17.459Z,13.52
2022-08-03T07:54:45.049Z,9.02
2022-08-03T07:57:12.380Z,5.75
2022-08-03T07:59:56.808Z,4.35
2022-08-03T08:02:27.546Z,2.35
2022-08-03T08:04:55.110Z,4.38
2022-08-03T08:07:22.446Z,4.10
2022-08-03T08:09:51.140Z,8.13
2022-08-03T08:12:18.617Z,6.38
2022-08-03T08:14:46.848Z,5.30
2022-08-03T08:17:14.355Z,6.55
2022-08-03T08:19:43.833Z,5.68
2022-08-03T08:22:25.845Z,6.00
2022-08-03T08:24:58.273Z,4.13
2022-08-03T08:27:25.555Z,3.30
2022-08-03T08:29:55.752Z,10.95
2022-08-03T08:32:24.849Z,9.90
2022-08-03T08:34:52.122Z,7.28
2022-08-03T08:37:19.395Z,4.82
2022-08-03T08:39:46.682Z,4.85
2022-08-03T08:42:14.031Z,4.30
2022-08-03T08:44:41.424Z,5.80
2022-08-03T08:47:09.011Z,6.75
2022-08-03T08:49:37.203Z,4.82
2022-08-03T08:52:04.752Z,4.28
2022-08-03T08:54:53.045Z,2.80
2022-08-03T08:57:40.700Z,7.55
2022-08-03T09:00:10.429Z,9.60
2022-08-03T09:02:38.149Z,6.53
2022-08-03T09:05:07.594Z,7.50
2022-08-03T09:07:35.145Z,3.15
2022-08-03T09:10:12.162Z,3.40
2022-08-03T09:12:43.596Z,4.93
2022-08-03T09:15:42.342Z,7.65
2022-08-03T09:18:32.834Z,8.45
2022-08-03T09:21:30.658Z,5.45
2022-08-03T09:24:04.723Z,2.17
2022-08-03T09:26:33.454Z,5.00
2022-08-03T09:29:05.610Z,5.57
2022-08-03T09:31:34.639Z,4.53
2022-08-03T09:34:06.222Z,4.00
2022-08-03T09:36:47.333Z,4.30
2022-08-03T09:39:41.540Z,4.63
2022-08-03T09:42:10.645Z,7.30
2022-08-03T09:44:38.959Z,5.70
2022-08-03T09:47:06.581Z,3.78
2022-08-03T09:49:33.952Z,6.43
2022-08-03T09:52:32.074Z,4.85
2022-08-03T09:55:01.940Z,2.22
2022-08-03T09:57:32.575Z,3.83
2022-08-03T10:02:30.482Z,5.68
2022-08-03T10:04:57.772Z,6.22
2022-08-03T10:07:25.453Z,3.92
2022-08-03T10:10:30.445Z,6.97
2022-08-03T10:12:49.758Z,5.93
2022-08-03T10:16:23.555Z,5.07
2022-08-03T10:18:05.286Z,4.38
2022-08-03T10:20:33.803Z,6.35
2022-08-03T10:23:01.149Z,4.15
2022-08-03T10:25:32.949Z,4.80
2022-08-03T10:28:02.237Z,6.70
2022-08-03T10:30:30.167Z,6.13
2022-08-03T10:32:59.077Z,7.38
2022-08-03T10:35:26.961Z,6.03
2022-08-03T10:38:01.365Z,4.35
2022-08-03T10:43:37.617Z,3.15
2022-08-03T10:46:07.714Z,7.40
2022-08-03T10:48:36.386Z,6.18
2022-08-03T10:51:04.897Z,8.13
2022-08-03T10:53:35.997Z,12.05
2022-08-03T10:56:46.599Z,6.18
2022-08-03T10:59:09.849Z,3.15
2022-08-03T11:01:58.498Z,4.20
2022-08-03T11:04:29.752Z,4.80
2022-08-03T11:07:16.616Z,4.68
2022-08-03T11:09:45.041Z,4.45
2022-08-03T11:12:33.750Z,3.97
2022-08-03T11:15:02.323Z,4.28
2022-08-03T11:17:29.846Z,6.25
2022-08-03T11:19:58.486Z,4.10
2022-08-03T11:22:28.337Z,4.35
2022-08-03T11:24:57.097Z,5.80
2022-08-03T11:27:34.048Z,4.60
2022-08-03T11:30:07.701Z,3.97
2022-08-03T11:32:46.491Z,8.82
2022-08-03T11:35:21.790Z,2.63
2022-08-03T11:38:03.538Z,4.28
2022-08-03T11:40:41.756Z,4.60
2022-08-03T11:43:10.242Z,4.03
2022-08-03T11:45:38.181Z,5.90
2022-08-03T11:48:16.288Z,4.80
2022-08-03T11:50:45.527Z,6.72
2022-08-03T11:53:19.985Z,4.30
2022-08-03T11:55:53.205Z,4.82
2022-08-03T11:59:18.875Z,9.88
2022-08-03T12:01:10.724Z,3.85
2022-08-03T12:03:38.031Z,6.00
2022-08-03T12:06:09.796Z,9.43
2022-08-03T12:08:37.133Z,5.47
2022-08-03T12:11:08.722Z,4.38
2022-08-03T12:14:05.773Z,3.75
2022-08-03T12:16:28.754Z,4.13
2022-08-03T12:19:00.119Z,6.28
2022-08-03T12:21:27.649Z,4.75
2022-08-03T12:24:00.390Z,3.03
2022-08-03T12:26:28.682Z,4.57
2022-08-03T12:28:56.068Z,3.85
2022-08-03T12:31:23.492Z,4.45
2022-08-03T12:34:11.459Z,9.88
2022-08-03T12:36:39.266Z,3.90
2022-08-03T12:39:08.108Z,6.38
2022-08-03T12:41:36.846Z,6.25
2022-08-03T12:44:05.493Z,3.45
2022-08-03T12:46:34.285Z,7.65
2022-08-03T12:49:07.931Z,4.13
2022-08-03T12:51:55.169Z,8.32
2022-08-03T12:54:25.599Z,5.75
2022-08-03T12:57:04.846Z,4.50
2022-08-03T12:59:35.399Z,4.93
2022-08-03T13:02:14.960Z,3.47
2022-08-03T13:04:42.819Z,6.60
2022-08-03T13:07:14.284Z,4.88
2022-08-03T13:09:45.992Z,6.13
2022-08-03T13:12:14.652Z,2.80
2022-08-03T13:14:42.461Z,7.20
2022-08-03T13:17:09.821Z,3.00
2022-08-03T13:19:38.244Z,6.57
2022-08-03T13:22:12.783Z,5.63
2022-08-03T13:24:40.088Z,9.27
2022-08-03T13:28:04.517Z,3.97
2022-08-03T13:29:55.326Z,7.55
2022-08-03T13:32:22.991Z,8.27
2022-08-03T13:34:50.716Z,5.20
2022-08-03T13:37:18.199Z,6.00
2022-08-03T13:39:58.078Z,5.88
2022-08-03T13:42:28.463Z,10.27
2022-08-03T13:44:55.789Z,5.75
2022-08-03T13:47:23.254Z,3.47
2022-08-03T13:49:59.510Z,6.38
2022-08-03T13:52:29.495Z,4.45
2022-08-03T13:54:56.859Z,12.43
2022-08-03T13:58:02.299Z,3.17
2022-08-03T14:00:12.172Z,4.32
2022-08-03T14:02:39.516Z,6.53
2022-08-03T14:05:08.215Z,10.98
2022-08-03T14:07:35.599Z,7.93
2022-08-03T14:10:03.027Z,3.75
2022-08-03T14:12:30.399Z,3.95
2022-08-03T14:15:01.156Z,5.10
2022-08-03T14:17:42.335Z,4.47
2022-08-03T14:20:36.635Z,6.93
2022-08-03T14:23:03.455Z,6.18
2022-08-03T14:25:43.173Z,7.55
2022-08-03T14:28:18.351Z,5.05
2022-08-03T14:30:45.681Z,5.22
2022-08-03T14:33:13.096Z,3.67
2022-08-03T14:35:40.442Z,4.13
2022-08-03T14:38:07.925Z,2.47
2022-08-03T14:40:35.289Z,3.97
2022-08-03T14:43:02.670Z,4.22
2022-08-03T14:45:30.011Z,4.47
2022-08-03T14:50:32.571Z,3.63
2022-08-03T14:50:51.461Z,3.95
2022-08-03T14:53:19.744Z,3.03
2022-08-03T14:55:50.690Z,5.88
2022-08-03T14:58:20.744Z,3.30
2022-08-03T15:00:49.147Z,2.92
2022-08-03T15:03:17.417Z,5.93
2022-08-03T15:05:45.102Z,4.28
2022-08-03T15:08:12.476Z,2.78
2022-08-03T15:10:44.776Z,3.80
2022-08-03T15:13:16.907Z,4.03
2022-08-03T15:15:44.325Z,9.05
2022-08-03T15:18:11.621Z,3.58
2022-08-03T15:20:44.983Z,4.28
2022-08-03T15:23:13.933Z,5.97
2022-08-03T15:26:04.195Z,4.43
2022-08-03T15:28:28.516Z,4.90
2022-08-03T15:30:55.896Z,5.22
2022-08-03T15:33:23.341Z,5.05
2022-08-03T15:35:50.620Z,4.05
2022-08-03T15:38:18.150Z,8.68
2022-08-03T15:40:45.742Z,5.18
2022-08-03T15:43:13.133Z,3.67
2022-08-03T15:45:41.997Z,3.85
2022-08-03T15:48:09.674Z,6.75
2022-08-03T15:50:37.196Z,4.35
2022-08-03T15:53:05.056Z,3.65
2022-08-03T15:55:32.895Z,6.35
2022-08-03T15:59:09.240Z,3.65
2022-08-03T16:00:54.925Z,5.20
2022-08-03T16:03:22.253Z,4.90
2022-08-03T16:05:49.542Z,6.00
2022-08-03T16:08:16.817Z,3.95
2022-08-03T16:10:44.210Z,2.45
2022-08-03T16:13:11.786Z,3.90
2022-08-03T16:15:39.205Z,7.40
2022-08-03T16:18:09.872Z,8.07
2022-08-03T16:20:37.152Z,5.80
2022-08-03T16:23:11.367Z,3.80
2022-08-03T16:25:42.552Z,5.90
2022-08-03T16:30:45.373Z,7.47
2022-08-03T16:33:16.902Z,3.78
2022-08-03T16:35:44.915Z,3.42
2022-08-03T16:38:18.172Z,7.68
2022-08-03T16:40:47.491Z,6.57
2022-08-03T16:43:18.267Z,5.60
2022-08-03T16:45:47.040Z,3.58
2022-08-03T16:48:15.149Z,6.45
2022-08-03T16:50:42.508Z,8.15
2022-08-03T16:53:15.689Z,6.18
2022-08-03T16:55:53.267Z,5.25
2022-08-03T16:58:42.956Z,4.72
2022-08-03T17:01:20.829Z,11.38
2022-08-03T17:04:01.224Z,5.07
2022-08-03T17:06:34.716Z,5.63
2022-08-03T17:09:03.222Z,5.32
2022-08-03T17:11:32.120Z,7.72
2022-08-03T17:14:00.561Z,3.65
2022-08-03T17:16:28.307Z,6.07
2022-08-03T17:19:03.942Z,4.30
2022-08-03T17:21:32.410Z,5.55
2022-08-03T17:24:20.048Z,3.67
2022-08-03T17:26:50.039Z,6.13
2022-08-03T17:29:23.120Z,3.03
2022-08-03T17:31:53.179Z,6.40
2022-08-03T17:34:20.766Z,5.30
2022-08-03T17:37:27.216Z,4.88
2022-08-03T17:39:58.134Z,5.65
2022-08-03T17:45:15.905Z,5.70
2022-08-03T17:47:43.835Z,5.68
2022-08-03T17:50:23.393Z,3.95
2022-08-03T17:52:56.138Z,7.60
2022-08-03T17:55:56.441Z,8.68
2022-08-03T17:58:17.811Z,7.13
2022-08-03T18:01:59.656Z,8.75
2022-08-03T18:03:58.609Z,7.55
2022-08-03T18:06:29.822Z,9.45
2022-08-03T18:09:04.779Z,6.25
2022-08-03T18:11:35.575Z,6.57
2022-08-03T18:14:09.967Z,7.00
2022-08-03T18:16:56.096Z,12.30
2022-08-03T18:20:01.094Z,8.15
2022-08-03T18:22:13.264Z,11.55
2022-08-03T18:24:41.627Z,9.60
2022-08-03T18:27:10.990Z,7.20
2022-08-03T18:29:38.957Z,6.80
2022-08-03T18:32:13.258Z,9.18
2022-08-03T18:34:53.572Z,10.20
2022-08-03T18:40:11.852Z,12.30
2022-08-03T18:42:52.762Z,12.35
2022-08-03T18:45:55.875Z,8.00
2022-08-03T18:48:15.642Z,9.10
2022-08-03T18:50:50.880Z,7.45
2022-08-03T18:53:21.795Z,8.75
2022-08-03T18:56:07.375Z,5.88
2022-08-03T18:58:38.656Z,10.10
2022-08-03T19:01:15.456Z,8.45
2022-08-03T19:04:04.889Z,8.23
2022-08-03T19:06:32.618Z,9.07
2022-08-03T19:09:09.429Z,6.93
2022-08-03T19:12:12.363Z,12.77
2022-08-03T19:14:41.697Z,6.60
2022-08-03T19:17:10.865Z,7.45
2022-08-03T19:19:43.960Z,7.57
2022-08-03T19:22:15.997Z,7.00
2022-08-03T19:24:44.228Z,8.27
2022-08-03T19:27:12.602Z,6.85
2022-08-03T19:29:59.003Z,6.55
2022-08-03T19:32:31.825Z,4.65
2022-08-03T19:35:00.386Z,8.13
2022-08-03T19:37:38.075Z,10.55
2022-08-03T19:40:10.478Z,5.45
2022-08-03T19:42:40.919Z,7.03
2022-08-03T19:45:13.846Z,10.10
2022-08-03T19:47:47.002Z,7.97
2022-08-03T19:50:14.674Z,7.18
2022-08-03T19:52:43.956Z,5.38
2022-08-03T19:55:12.343Z,6.90
2022-08-03T19:57:41.579Z,7.47
2022-08-03T20:00:12.571Z,10.73
2022-08-03T20:02:41.795Z,4.53
2022-08-03T20:05:14.825Z,5.88
2022-08-03T20:07:47.587Z,5.35
2022-08-03T20:10:16.235Z,5.35
2022-08-03T20:12:44.844Z,7.72
2022-08-03T20:15:12.363Z,9.57
2022-08-03T20:17:56.903Z,6.40
2022-08-03T20:20:33.512Z,9.32
2022-08-03T20:23:01.711Z,5.00
2022-08-03T20:25:37.609Z,9.10
2022-08-03T20:28:14.277Z,3.50
2022-08-03T20:30:43.477Z,7.03
2022-08-03T20:33:10.884Z,5.60
2022-08-03T20:35:38.179Z,4.10
2022-08-03T20:40:36.769Z,7.68
2022-08-03T20:43:05.466Z,5.00
2022-08-03T20:45:59.415Z,8.90
2022-08-03T20:48:21.974Z,5.95
2022-08-03T20:50:49.802Z,5.75
2022-08-03T20:53:49.214Z,6.82
2022-08-03T20:56:05.586Z,5.60
2022-08-03T20:58:35.925Z,13.43
2022-08-03T21:01:04.016Z,5.18
2022-08-03T21:03:40.920Z,6.57
2022-08-03T21:06:27.403Z,3.92
2022-08-03T21:09:00.196Z,9.57
2022-08-03T21:11:41.602Z,6.68
2022-08-03T21:12:54.738Z,6.25
2022-08-03T21:13:05.867Z,8.90
2022-08-03T21:14:14.973Z,4.55
2022-08-03T21:16:44.662Z,7.35
2022-08-03T21:19:12.300Z,8.52
2022-08-03T21:21:40.174Z,6.30
2022-08-03T21:24:08.382Z,4.90
2022-08-03T21:26:38.724Z,5.85
2022-08-03T21:29:06.168Z,5.00
2022-08-03T21:31:33.487Z,5.13
2022-08-03T21:34:04.092Z,5.40
2022-08-03T21:36:32.522Z,7.75
2022-08-03T21:39:00.316Z,6.68
2022-08-03T21:41:29.429Z,7.78
2022-08-03T21:43:56.916Z,5.35
2022-08-03T21:46:24.273Z,3.47
2022-08-03T21:48:55.094Z,4.38
2022-08-03T21:51:24.574Z,4.63
2022-08-03T21:54:02.506Z,5.00
2022-08-03T21:56:36.995Z,9.20
2022-08-03T21:59:05.993Z,7.55
2022-08-03T22:01:35.208Z,9.00
2022-08-03T22:04:05.569Z,5.55
2022-08-03T22:06:34.453Z,6.65
2022-08-03T22:09:01.787Z,5.93
2022-08-03T22:11:29.203Z,8.77
2022-08-03T22:13:56.466Z,4.13
2022-08-03T22:16:23.885Z,7.10
2022-08-03T22:18:51.185Z,9.52
2022-08-03T22:21:28.000Z,4.57
2022-08-03T22:24:05.282Z,6.40
2022-08-03T22:26:35.522Z,5.28
2022-08-03T22:29:06.909Z,2.85
2022-08-03T22:31:57.763Z,4.53
2022-08-03T22:34:26.429Z,6.93
2022-08-03T22:36:56.275Z,7.75
2022-08-03T22:39:28.936Z,8.25
2022-08-03T22:41:59.053Z,8.43
2022-08-03T22:44:30.415Z,7.07
2022-08-03T22:46:58.500Z,11.52
2022-08-03T22:49:27.843Z,3.35
2022-08-03T22:51:55.437Z,4.40
2022-08-03T22:54:23.748Z,3.65
2022-08-03T22:56:51.672Z,5.43
2022-08-03T22:59:40.955Z,2.83
2022-08-03T23:02:20.562Z,1.73
2022-08-03T23:04:58.630Z,5.35
2022-08-03T23:07:31.010Z,1.75
2022-08-03T23:09:58.682Z,4.30
2022-08-03T23:12:26.089Z,6.25
2022-08-03T23:14:55.210Z,13.27
2022-08-03T23:17:27.203Z,7.75
2022-08-03T23:19:55.302Z,7.10
2022-08-03T23:22:30.656Z,6.95
2022-08-03T23:24:59.315Z,3.47
2022-08-03T23:27:28.169Z,6.05
2022-08-03T23:29:58.314Z,5.35
2022-08-03T23:32:29.753Z,8.38
2022-08-03T23:36:17.238Z,8.95
2022-08-03T23:38:23.127Z,4.32
2022-08-03T23:40:51.337Z,9.77
2022-08-03T23:43:52.374Z,10.75
2022-08-03T23:46:08.516Z,10.07
2022-08-03T23:48:35.805Z,11.82
2022-08-03T23:51:20.679Z,7.20
2022-08-03T23:54:03.866Z,5.43
2022-08-03T23:56:39.035Z,6.28
2022-08-03T23:59:21.910Z,6.00
